METAR Data
IDs: Format: Raw Decoded Include TAF

Data at: 2325 UTC 25 Oct 2021

KGTU 252256Z 16008KT 10SM CLR 29/22 A2993 RMK AO2 SLP127 T02940222
KGTU 252156Z 14007KT 10SM CLR 31/22 A2993 RMK AO2 SLP128 T03110222
KGTU 252056Z 17006KT 10SM CLR 31/22 A2993 RMK AO2 SLP127 T03060217 56020
KGTU 251956Z 15006KT 10SM CLR 30/22 A2994 RMK AO2 SLP131 T03000222
KGTU 251856Z VRB06KT 10SM CLR 29/22 A2997 RMK AO2 SLP140 T02940222
KGTU 251756Z 19008KT 10SM FEW021 29/22 A2999 RMK AO2 SLP148 T02890222 10289 20200 58007
KGTU 251656Z 18005KT 10SM SCT015 27/22 A3000 RMK AO2 SLP154 T02720222
KGTU 251638Z VRB03KT 10SM SCT013 27/22 A3001 RMK AO2
KGTU 251624Z 17004KT 10SM BKN013 26/22 A3001 RMK AO2
KGTU 251617Z 16005KT 10SM SCT013 26/22 A3001 RMK AO2
KGTU 251603Z 19004KT 10SM BKN011 26/22 A3001 RMK AO2
KGTU 251556Z 00000KT 10SM SCT011 25/22 A3001 RMK AO2 SLP157 T02500217
KGTU 251456Z VRB03KT 10SM SCT002 SCT010 23/21 A3001 RMK AO2 SLP158 T02330211 51010
KGTU 251454Z VRB03KT 10SM SCT002 SCT010 23/21 A3001 RMK AO2
KGTU 251420Z 00000KT 7SM SCT002 OVC010 21/21 A3000 RMK AO2
KGTU 251407Z 00000KT 3SM BR BKN002 OVC010 21/20 A3000 RMK AO2
KGTU 251359Z 1 1/4SM BR OVC002 21/20 A3000 RMK AO2
KGTU 251356Z 1/2SM FG BKN002 BKN014 21/20 A3000 RMK AO2 SLP155 T02060200
KGTU 251331Z COR 2SM BR BKN002 BKN014 21/20 A2999 RMK AO2 $
KGTU 251318Z 10003KT 9SM BKN014 21/20 A2999 RMK AO2
KGTU 251256Z 00000KT 10SM CLR 21/19 A2998 RMK AO2 SLP147 T02060194
KGTU 251156Z 00000KT 10SM CLR 21/19 A2996 RMK AO2 SLP138 T02060194 10222 20200 53012
KGTU 251056Z AUTO 00000KT 10SM CLR 21/20 A2993 RMK AO2 SLP130 T02110200
KGTU 250956Z AUTO 23004KT 10SM CLR 22/20 A2993 RMK AO2 SLP126 T02170200
KGTU 250856Z AUTO 23005KT 10SM CLR 22/21 A2992 RMK AO2 SLP126 T02170206 50000
KGTU 250756Z AUTO 20005KT 10SM CLR 22/21 A2993 RMK AO2 SLP127 T02220206
KGTU 250656Z AUTO 19004KT 10SM CLR 22/20 A2993 RMK AO2 SLP128 T02220200
KGTU 250556Z AUTO 22003KT 10SM CLR 22/20 A2992 RMK AO2 SLP126 T02220200 10272 20211 402940200 51010
KGTU 250456Z AUTO 21004KT 10SM CLR 22/19 A2991 RMK AO2 SLP124 T02170194
KGTU 250356Z AUTO 14004KT 10SM CLR 23/19 A2991 RMK AO2 SLP121 T02280194
KGTU 250256Z 16003KT 10SM CLR 23/19 A2989 RMK AO2 SLP117 T02330194 53012
KGTU 250156Z 16003KT 10SM CLR 24/19 A2987 RMK AO2 SLP110 T02440194
KGTU 250056Z 16004KT 10SM CLR 26/20 A2985 RMK AO2 SLP103 T02610200
KGTU 242356Z 18005KT 10SM CLR 27/19 A2985 RMK AO2 SLP104 T02720194 10294 20267 53008
KGTU 242256Z 18011KT 10SM CLR 29/19 A2983 RMK AO2 SLP096 T02890194
KGTU 242156Z 18010KT 10SM BKN044 29/20 A2983 RMK AO2 SLP095 T02890200
KGTU 242056Z 18007KT 10SM BKN038 28/19 A2983 RMK AO2 SLP094 T02830194 56019
KGTU 241956Z 16009KT 10SM BKN032 28/20 A2984 RMK AO2 SLP097 T02830200
KGTU 241856Z 18014G18KT 10SM FEW026 SCT038 28/21 A2984 RMK AO2 SLP100 T02780206
KGTU 241813Z 18010KT 10SM SCT020 SCT030 BKN038 27/21 A2988 RMK AO2
KGTU 241756Z 16010G15KT 10SM BKN018 BKN032 27/21 A2989 RMK AO2 SLP114 T02670206 10267 20206 58013
KGTU 241656Z 18007KT 10SM BKN016 OVC032 24/21 A2992 RMK AO2 SLP127 T02440206
KGTU 241646Z 17006KT 10SM BKN016 OVC032 24/21 A2992 RMK AO2
KGTU 241616Z 17007KT 10SM SCT009 OVC032 24/21 A2992 RMK AO2
KGTU 241556Z 15008KT 10SM OVC009 23/21 A2991 RMK AO2 CIG 007V013 SLP124 T02330206
KGTU 241532Z 15006KT 10SM BKN007 OVC012 22/21 A2992 RMK AO2 CIG 004V010
KGTU 241516Z 16004KT 10SM BKN005 OVC011 22/21 A2992 RMK AO2 CIG 003V008
KGTU 241456Z 16006KT 10SM OVC003 22/21 A2992 RMK AO2 SLP128 T02170206 53019
KGTU 241356Z 16006KT 7SM OVC003 21/20 A2990 RMK AO2 SLP120 T02110200
KGTU 241345Z 16006KT 9SM OVC003 21/20 A2989 RMK AO2
KGTU 241256Z AUTO 10SM OVC005 21/20 A2987 RMK AO2 SLP110 T02110200
KGTU 241243Z AUTO 18005KT 10SM OVC005 21/20 A2987 RMK AO2
KGTU 241156Z AUTO 16005KT 9SM OVC003 21/20 A2987 RMK AO2 SLP108 T02060200 10211 20200 53002